sensor_id;sensor_type;location;lat;lon;timestamp;P1;durP1;ratioP1;P2;durP2;ratioP2
8819;SDS011;4446;50.876;4.736;2023-06-19T00:00:20;3.63;;;2.95;;
8819;SDS011;4446;50.876;4.736;2023-06-19T00:02:47;3.15;;;2.70;;
8819;SDS011;4446;50.876;4.736;2023-06-19T00:05:14;3.53;;;2.53;;
8819;SDS011;4446;50.876;4.736;2023-06-19T00:07:41;3.78;;;3.17;;
8819;SDS011;4446;50.876;4.736;2023-06-19T00:10:09;3.90;;;3.10;;
8819;SDS011;4446;50.876;4.736;2023-06-19T00:12:36;4.40;;;3.10;;
8819;SDS011;4446;50.876;4.736;2023-06-19T00:15:03;4.60;;;3.08;;
8819;SDS011;4446;50.876;4.736;2023-06-19T00:17:32;3.53;;;2.90;;
8819;SDS011;4446;50.876;4.736;2023-06-19T00:20:02;3.60;;;2.83;;
8819;SDS011;4446;50.876;4.736;2023-06-19T00:22:30;4.03;;;2.90;;
8819;SDS011;4446;50.876;4.736;2023-06-19T00:24:57;4.35;;;3.03;;
8819;SDS011;4446;50.876;4.736;2023-06-19T00:27:25;3.47;;;2.90;;
8819;SDS011;4446;50.876;4.736;2023-06-19T00:29:52;5.32;;;2.85;;
8819;SDS011;4446;50.876;4.736;2023-06-19T00:32:19;4.68;;;2.97;;
8819;SDS011;4446;50.876;4.736;2023-06-19T00:34:46;3.22;;;2.90;;
8819;SDS011;4446;50.876;4.736;2023-06-19T00:37:13;5.80;;;2.97;;
8819;SDS011;4446;50.876;4.736;2023-06-19T00:39:40;4.07;;;2.90;;
8819;SDS011;4446;50.876;4.736;2023-06-19T00:42:07;4.28;;;2.63;;
8819;SDS011;4446;50.876;4.736;2023-06-19T00:44:35;5.70;;;2.92;;
8819;SDS011;4446;50.876;4.736;2023-06-19T00:51:02;3.47;;;2.83;;
8819;SDS011;4446;50.876;4.736;2023-06-19T00:53:29;3.90;;;3.15;;
8819;SDS011;4446;50.876;4.736;2023-06-19T00:55:58;4.25;;;3.20;;
8819;SDS011;4446;50.876;4.736;2023-06-19T00:58:26;3.40;;;2.90;;
8819;SDS011;4446;50.876;4.736;2023-06-19T01:00:55;3.30;;;2.78;;
8819;SDS011;4446;50.876;4.736;2023-06-19T01:03:22;4.13;;;2.80;;
8819;SDS011;4446;50.876;4.736;2023-06-19T01:05:51;3.08;;;2.78;;
8819;SDS011;4446;50.876;4.736;2023-06-19T01:08:29;4.47;;;3.13;;
8819;SDS011;4446;50.876;4.736;2023-06-19T01:11:08;3.45;;;2.80;;
8819;SDS011;4446;50.876;4.736;2023-06-19T01:13:39;4.40;;;2.95;;
8819;SDS011;4446;50.876;4.736;2023-06-19T01:16:12;2.95;;;2.65;;
8819;SDS011;4446;50.876;4.736;2023-06-19T01:18:41;3.08;;;2.35;;
8819;SDS011;4446;50.876;4.736;2023-06-19T01:21:10;5.07;;;2.90;;
8819;SDS011;4446;50.876;4.736;2023-06-19T01:23:39;4.25;;;2.60;;
8819;SDS011;4446;50.876;4.736;2023-06-19T01:26:06;3.78;;;2.60;;
8819;SDS011;4446;50.876;4.736;2023-06-19T01:28:33;6.45;;;3.72;;
8819;SDS011;4446;50.876;4.736;2023-06-19T01:31:02;5.05;;;3.10;;
8819;SDS011;4446;50.876;4.736;2023-06-19T01:33:34;3.47;;;2.60;;
8819;SDS011;4446;50.876;4.736;2023-06-19T01:36:04;5.60;;;2.90;;
8819;SDS011;4446;50.876;4.736;2023-06-19T01:38:32;4.03;;;3.05;;
8819;SDS011;4446;50.876;4.736;2023-06-19T01:41:02;3.80;;;2.85;;
8819;SDS011;4446;50.876;4.736;2023-06-19T01:43:31;4.55;;;3.30;;
8819;SDS011;4446;50.876;4.736;2023-06-19T01:45:58;4.35;;;3.42;;
8819;SDS011;4446;50.876;4.736;2023-06-19T01:48:26;4.13;;;2.90;;
8819;SDS011;4446;50.876;4.736;2023-06-19T01:50:53;2.97;;;2.67;;
8819;SDS011;4446;50.876;4.736;2023-06-19T01:53:20;3.80;;;3.08;;
8819;SDS011;4446;50.876;4.736;2023-06-19T01:55:47;4.13;;;3.10;;
8819;SDS011;4446;50.876;4.736;2023-06-19T01:58:15;3.22;;;2.92;;
8819;SDS011;4446;50.876;4.736;2023-06-19T02:00:42;3.72;;;3.05;;
8819;SDS011;4446;50.876;4.736;2023-06-19T02:03:09;4.10;;;3.33;;
8819;SDS011;4446;50.876;4.736;2023-06-19T02:05:36;4.78;;;3.28;;
8819;SDS011;4446;50.876;4.736;2023-06-19T02:08:04;3.55;;;2.97;;
8819;SDS011;4446;50.876;4.736;2023-06-19T02:10:32;3.10;;;2.80;;
8819;SDS011;4446;50.876;4.736;2023-06-19T02:12:59;3.55;;;2.78;;
8819;SDS011;4446;50.876;4.736;2023-06-19T02:15:27;4.25;;;2.78;;
8819;SDS011;4446;50.876;4.736;2023-06-19T02:17:55;3.55;;;2.88;;
8819;SDS011;4446;50.876;4.736;2023-06-19T02:20:22;4.80;;;2.80;;
8819;SDS011;4446;50.876;4.736;2023-06-19T02:22:50;4.10;;;2.72;;
8819;SDS011;4446;50.876;4.736;2023-06-19T02:25:17;2.90;;;2.58;;
8819;SDS011;4446;50.876;4.736;2023-06-19T02:27:45;3.97;;;2.83;;
8819;SDS011;4446;50.876;4.736;2023-06-19T02:30:12;6.20;;;3.20;;
8819;SDS011;4446;50.876;4.736;2023-06-19T02:32:41;5.03;;;2.90;;
8819;SDS011;4446;50.876;4.736;2023-06-19T02:35:09;3.15;;;2.50;;
8819;SDS011;4446;50.876;4.736;2023-06-19T02:37:36;3.40;;;2.88;;
8819;SDS011;4446;50.876;4.736;2023-06-19T02:40:04;3.63;;;3.10;;
8819;SDS011;4446;50.876;4.736;2023-06-19T02:42:31;3.78;;;3.20;;
8819;SDS011;4446;50.876;4.736;2023-06-19T02:44:58;3.67;;;2.95;;
8819;SDS011;4446;50.876;4.736;2023-06-19T02:47:28;5.43;;;3.00;;
8819;SDS011;4446;50.876;4.736;2023-06-19T02:49:58;3.33;;;3.00;;
8819;SDS011;4446;50.876;4.736;2023-06-19T02:52:25;3.75;;;3.17;;
8819;SDS011;4446;50.876;4.736;2023-06-19T02:54:52;4.07;;;2.80;;
8819;SDS011;4446;50.876;4.736;2023-06-19T02:57:19;4.00;;;3.00;;
8819;SDS011;4446;50.876;4.736;2023-06-19T02:59:46;3.97;;;3.28;;
8819;SDS011;4446;50.876;4.736;2023-06-19T03:02:13;4.45;;;2.90;;
8819;SDS011;4446;50.876;4.736;2023-06-19T03:04:40;3.15;;;2.80;;
8819;SDS011;4446;50.876;4.736;2023-06-19T03:07:08;3.65;;;3.05;;
8819;SDS011;4446;50.876;4.736;2023-06-19T03:09:35;3.88;;;3.00;;
8819;SDS011;4446;50.876;4.736;2023-06-19T03:12:03;4.32;;;3.40;;
8819;SDS011;4446;50.876;4.736;2023-06-19T03:14:30;4.63;;;3.40;;
8819;SDS011;4446;50.876;4.736;2023-06-19T03:16:57;5.57;;;4.20;;
8819;SDS011;4446;50.876;4.736;2023-06-19T03:19:24;4.38;;;3.78;;
8819;SDS011;4446;50.876;4.736;2023-06-19T03:21:51;6.15;;;4.07;;
8819;SDS011;4446;50.876;4.736;2023-06-19T03:24:19;5.43;;;3.92;;
8819;SDS011;4446;50.876;4.736;2023-06-19T03:26:46;6.18;;;4.53;;
8819;SDS011;4446;50.876;4.736;2023-06-19T03:29:13;5.22;;;4.10;;
8819;SDS011;4446;50.876;4.736;2023-06-19T03:31:40;5.82;;;4.10;;
8819;SDS011;4446;50.876;4.736;2023-06-19T03:34:06;4.75;;;3.97;;
8819;SDS011;4446;50.876;4.736;2023-06-19T03:36:33;5.55;;;4.30;;
8819;SDS011;4446;50.876;4.736;2023-06-19T03:39:00;8.15;;;4.50;;
8819;SDS011;4446;50.876;4.736;2023-06-19T03:41:29;6.88;;;4.75;;
8819;SDS011;4446;50.876;4.736;2023-06-19T03:43:55;7.57;;;4.85;;
8819;SDS011;4446;50.876;4.736;2023-06-19T03:46:22;6.80;;;4.70;;
8819;SDS011;4446;50.876;4.736;2023-06-19T03:48:49;6.07;;;5.22;;
8819;SDS011;4446;50.876;4.736;2023-06-19T03:51:16;5.70;;;5.10;;
8819;SDS011;4446;50.876;4.736;2023-06-19T03:53:43;7.90;;;5.40;;
8819;SDS011;4446;50.876;4.736;2023-06-19T03:56:10;7.57;;;4.80;;
8819;SDS011;4446;50.876;4.736;2023-06-19T03:58:38;6.88;;;5.10;;
8819;SDS011;4446;50.876;4.736;2023-06-19T04:01:05;6.45;;;5.03;;
8819;SDS011;4446;50.876;4.736;2023-06-19T04:03:32;5.03;;;4.53;;
8819;SDS011;4446;50.876;4.736;2023-06-19T04:06:00;7.47;;;5.05;;
8819;SDS011;4446;50.876;4.736;2023-06-19T04:08:26;6.90;;;5.03;;
8819;SDS011;4446;50.876;4.736;2023-06-19T04:10:54;7.10;;;5.45;;
8819;SDS011;4446;50.876;4.736;2023-06-19T04:13:21;6.22;;;4.85;;
8819;SDS011;4446;50.876;4.736;2023-06-19T04:15:49;8.07;;;5.30;;
8819;SDS011;4446;50.876;4.736;2023-06-19T04:18:16;6.57;;;5.40;;
8819;SDS011;4446;50.876;4.736;2023-06-19T04:20:43;7.30;;;5.60;;
8819;SDS011;4446;50.876;4.736;2023-06-19T04:23:10;8.88;;;6.13;;
8819;SDS011;4446;50.876;4.736;2023-06-19T04:25:37;7.05;;;5.63;;
8819;SDS011;4446;50.876;4.736;2023-06-19T04:28:04;10.57;;;6.32;;
8819;SDS011;4446;50.876;4.736;2023-06-19T04:30:31;11.10;;;6.93;;
8819;SDS011;4446;50.876;4.736;2023-06-19T04:33:00;8.57;;;6.47;;
8819;SDS011;4446;50.876;4.736;2023-06-19T04:35:26;12.43;;;6.97;;
8819;SDS011;4446;50.876;4.736;2023-06-19T04:37:53;9.38;;;7.18;;
8819;SDS011;4446;50.876;4.736;2023-06-19T04:40:20;10.55;;;6.78;;
8819;SDS011;4446;50.876;4.736;2023-06-19T04:42:47;10.00;;;6.90;;
8819;SDS011;4446;50.876;4.736;2023-06-19T04:45:14;7.85;;;6.65;;
8819;SDS011;4446;50.876;4.736;2023-06-19T04:47:41;8.18;;;6.10;;
8819;SDS011;4446;50.876;4.736;2023-06-19T04:50:11;6.22;;;5.30;;
8819;SDS011;4446;50.876;4.736;2023-06-19T04:52:38;7.30;;;5.32;;
8819;SDS011;4446;50.876;4.736;2023-06-19T04:55:05;6.38;;;5.68;;
8819;SDS011;4446;50.876;4.736;2023-06-19T04:57:34;5.97;;;4.93;;
8819;SDS011;4446;50.876;4.736;2023-06-19T05:00:02;6.22;;;4.85;;
8819;SDS011;4446;50.876;4.736;2023-06-19T05:02:31;6.38;;;5.40;;
8819;SDS011;4446;50.876;4.736;2023-06-19T05:04:58;6.45;;;5.72;;
8819;SDS011;4446;50.876;4.736;2023-06-19T05:07:29;5.72;;;4.85;;
8819;SDS011;4446;50.876;4.736;2023-06-19T05:09:56;7.63;;;5.55;;
8819;SDS011;4446;50.876;4.736;2023-06-19T05:12:23;7.18;;;5.63;;
8819;SDS011;4446;50.876;4.736;2023-06-19T05:14:50;7.45;;;4.78;;
8819;SDS011;4446;50.876;4.736;2023-06-19T05:17:17;5.50;;;4.60;;
8819;SDS011;4446;50.876;4.736;2023-06-19T05:19:44;6.47;;;4.78;;
8819;SDS011;4446;50.876;4.736;2023-06-19T05:22:11;6.38;;;4.88;;
8819;SDS011;4446;50.876;4.736;2023-06-19T05:24:39;5.80;;;4.97;;
8819;SDS011;4446;50.876;4.736;2023-06-19T05:27:06;5.75;;;4.93;;
8819;SDS011;4446;50.876;4.736;2023-06-19T05:29:34;7.78;;;5.45;;
8819;SDS011;4446;50.876;4.736;2023-06-19T05:32:01;8.60;;;4.82;;
8819;SDS011;4446;50.876;4.736;2023-06-19T05:34:28;5.80;;;5.03;;
8819;SDS011;4446;50.876;4.736;2023-06-19T05:36:55;5.78;;;5.05;;
8819;SDS011;4446;50.876;4.736;2023-06-19T05:39:22;6.07;;;4.90;;
8819;SDS011;4446;50.876;4.736;2023-06-19T05:41:50;7.35;;;5.03;;
8819;SDS011;4446;50.876;4.736;2023-06-19T05:44:17;6.60;;;5.32;;
8819;SDS011;4446;50.876;4.736;2023-06-19T05:46:44;6.70;;;5.35;;
8819;SDS011;4446;50.876;4.736;2023-06-19T05:49:11;6.82;;;5.38;;
8819;SDS011;4446;50.876;4.736;2023-06-19T05:51:38;6.70;;;5.75;;
8819;SDS011;4446;50.876;4.736;2023-06-19T05:54:05;7.28;;;5.43;;
8819;SDS011;4446;50.876;4.736;2023-06-19T05:56:32;6.70;;;5.13;;
8819;SDS011;4446;50.876;4.736;2023-06-19T05:59:00;7.28;;;5.45;;
8819;SDS011;4446;50.876;4.736;2023-06-19T06:01:28;7.43;;;5.15;;
8819;SDS011;4446;50.876;4.736;2023-06-19T06:03:55;7.28;;;5.40;;
8819;SDS011;4446;50.876;4.736;2023-06-19T06:06:22;6.30;;;4.80;;
8819;SDS011;4446;50.876;4.736;2023-06-19T06:08:50;5.63;;;4.28;;
8819;SDS011;4446;50.876;4.736;2023-06-19T06:11:17;6.38;;;4.93;;
8819;SDS011;4446;50.876;4.736;2023-06-19T06:13:44;6.68;;;5.78;;
8819;SDS011;4446;50.876;4.736;2023-06-19T06:16:13;8.10;;;5.22;;
8819;SDS011;4446;50.876;4.736;2023-06-19T06:18:40;8.20;;;5.45;;
8819;SDS011;4446;50.876;4.736;2023-06-19T06:21:07;7.28;;;5.60;;
8819;SDS011;4446;50.876;4.736;2023-06-19T06:23:34;6.65;;;5.57;;
8819;SDS011;4446;50.876;4.736;2023-06-19T06:26:01;6.78;;;5.20;;
8819;SDS011;4446;50.876;4.736;2023-06-19T06:28:30;6.07;;;5.05;;
8819;SDS011;4446;50.876;4.736;2023-06-19T06:30:57;6.35;;;4.60;;
8819;SDS011;4446;50.876;4.736;2023-06-19T06:33:26;5.57;;;4.88;;
8819;SDS011;4446;50.876;4.736;2023-06-19T06:35:54;7.05;;;5.55;;
8819;SDS011;4446;50.876;4.736;2023-06-19T06:38:21;6.35;;;5.25;;
8819;SDS011;4446;50.876;4.736;2023-06-19T06:40:48;6.82;;;5.75;;
8819;SDS011;4446;50.876;4.736;2023-06-19T06:43:15;6.97;;;5.47;;
8819;SDS011;4446;50.876;4.736;2023-06-19T06:45:42;6.88;;;5.53;;
8819;SDS011;4446;50.876;4.736;2023-06-19T06:48:10;6.90;;;5.55;;
8819;SDS011;4446;50.876;4.736;2023-06-19T06:50:39;8.20;;;5.63;;
8819;SDS011;4446;50.876;4.736;2023-06-19T06:53:06;7.47;;;5.68;;
8819;SDS011;4446;50.876;4.736;2023-06-19T06:55:33;6.03;;;5.40;;
8819;SDS011;4446;50.876;4.736;2023-06-19T06:58:00;7.88;;;5.47;;
8819;SDS011;4446;50.876;4.736;2023-06-19T07:00:27;7.43;;;6.28;;
8819;SDS011;4446;50.876;4.736;2023-06-19T07:02:55;7.43;;;6.07;;
8819;SDS011;4446;50.876;4.736;2023-06-19T07:05:22;9.85;;;5.80;;
8819;SDS011;4446;50.876;4.736;2023-06-19T07:07:50;6.60;;;5.88;;
8819;SDS011;4446;50.876;4.736;2023-06-19T07:10:17;7.18;;;6.10;;
8819;SDS011;4446;50.876;4.736;2023-06-19T07:12:45;7.38;;;5.95;;
8819;SDS011;4446;50.876;4.736;2023-06-19T07:15:13;9.00;;;5.93;;
8819;SDS011;4446;50.876;4.736;2023-06-19T07:17:40;6.97;;;5.90;;
8819;SDS011;4446;50.876;4.736;2023-06-19T07:20:07;7.78;;;6.28;;
8819;SDS011;4446;50.876;4.736;2023-06-19T07:22:35;8.13;;;6.75;;
8819;SDS011;4446;50.876;4.736;2023-06-19T07:25:04;8.23;;;6.50;;
8819;SDS011;4446;50.876;4.736;2023-06-19T07:27:32;9.93;;;7.10;;
8819;SDS011;4446;50.876;4.736;2023-06-19T07:29:59;9.63;;;6.93;;
8819;SDS011;4446;50.876;4.736;2023-06-19T07:32:25;9.18;;;7.22;;
8819;SDS011;4446;50.876;4.736;2023-06-19T07:34:52;10.55;;;6.65;;
8819;SDS011;4446;50.876;4.736;2023-06-19T07:37:20;8.68;;;6.63;;
8819;SDS011;4446;50.876;4.736;2023-06-19T07:39:48;8.85;;;7.05;;
8819;SDS011;4446;50.876;4.736;2023-06-19T07:42:18;9.77;;;6.40;;
8819;SDS011;4446;50.876;4.736;2023-06-19T07:44:46;8.27;;;6.18;;
8819;SDS011;4446;50.876;4.736;2023-06-19T07:47:15;10.40;;;6.95;;
8819;SDS011;4446;50.876;4.736;2023-06-19T07:49:43;8.25;;;6.65;;
8819;SDS011;4446;50.876;4.736;2023-06-19T07:52:10;7.20;;;5.55;;
8819;SDS011;4446;50.876;4.736;2023-06-19T07:54:47;7.95;;;6.35;;
8819;SDS011;4446;50.876;4.736;2023-06-19T07:57:14;7.35;;;6.20;;
8819;SDS011;4446;50.876;4.736;2023-06-19T07:59:42;6.57;;;5.65;;
8819;SDS011;4446;50.876;4.736;2023-06-19T08:02:10;9.00;;;5.72;;
8819;SDS011;4446;50.876;4.736;2023-06-19T08:04:37;7.20;;;5.93;;
8819;SDS011;4446;50.876;4.736;2023-06-19T08:07:04;7.35;;;5.95;;
8819;SDS011;4446;50.876;4.736;2023-06-19T08:09:31;8.93;;;5.90;;
8819;SDS011;4446;50.876;4.736;2023-06-19T08:11:58;6.22;;;5.53;;
8819;SDS011;4446;50.876;4.736;2023-06-19T08:14:25;7.32;;;6.20;;
8819;SDS011;4446;50.876;4.736;2023-06-19T08:16:54;7.15;;;5.60;;
8819;SDS011;4446;50.876;4.736;2023-06-19T08:19:21;6.90;;;5.55;;
8819;SDS011;4446;50.876;4.736;2023-06-19T08:21:48;8.52;;;5.65;;
8819;SDS011;4446;50.876;4.736;2023-06-19T08:24:15;7.30;;;5.88;;
8819;SDS011;4446;50.876;4.736;2023-06-19T08:26:42;6.90;;;5.25;;
8819;SDS011;4446;50.876;4.736;2023-06-19T08:29:09;6.05;;;5.43;;
8819;SDS011;4446;50.876;4.736;2023-06-19T08:31:36;6.82;;;5.40;;
8819;SDS011;4446;50.876;4.736;2023-06-19T08:34:04;7.53;;;5.47;;
8819;SDS011;4446;50.876;4.736;2023-06-19T08:36:34;6.57;;;5.60;;
8819;SDS011;4446;50.876;4.736;2023-06-19T08:39:01;7.18;;;6.07;;
8819;SDS011;4446;50.876;4.736;2023-06-19T08:41:28;7.15;;;5.53;;
8819;SDS011;4446;50.876;4.736;2023-06-19T08:43:55;7.50;;;5.63;;
8819;SDS011;4446;50.876;4.736;2023-06-19T08:46:23;7.50;;;5.80;;
8819;SDS011;4446;50.876;4.736;2023-06-19T08:48:54;7.88;;;6.47;;
8819;SDS011;4446;50.876;4.736;2023-06-19T08:51:22;7.65;;;6.28;;
8819;SDS011;4446;50.876;4.736;2023-06-19T08:53:54;7.22;;;6.47;;
8819;SDS011;4446;50.876;4.736;2023-06-19T08:56:22;8.68;;;6.38;;
8819;SDS011;4446;50.876;4.736;2023-06-19T08:58:49;7.05;;;6.25;;
8819;SDS011;4446;50.876;4.736;2023-06-19T09:01:16;7.32;;;6.57;;
8819;SDS011;4446;50.876;4.736;2023-06-19T09:03:44;9.30;;;7.28;;
8819;SDS011;4446;50.876;4.736;2023-06-19T09:06:14;8.07;;;6.75;;
8819;SDS011;4446;50.876;4.736;2023-06-19T09:08:43;8.88;;;5.88;;
8819;SDS011;4446;50.876;4.736;2023-06-19T09:11:10;7.97;;;6.13;;
8819;SDS011;4446;50.876;4.736;2023-06-19T09:13:38;9.25;;;6.90;;
8819;SDS011;4446;50.876;4.736;2023-06-19T09:16:05;8.20;;;6.28;;
8819;SDS011;4446;50.876;4.736;2023-06-19T09:18:42;9.02;;;6.63;;
8819;SDS011;4446;50.876;4.736;2023-06-19T09:21:14;6.95;;;6.03;;
8819;SDS011;4446;50.876;4.736;2023-06-19T09:23:44;8.60;;;6.22;;
8819;SDS011;4446;50.876;4.736;2023-06-19T09:26:13;7.93;;;6.07;;
8819;SDS011;4446;50.876;4.736;2023-06-19T09:28:43;8.15;;;6.63;;
8819;SDS011;4446;50.876;4.736;2023-06-19T09:31:10;8.60;;;6.82;;
8819;SDS011;4446;50.876;4.736;2023-06-19T09:33:38;7.80;;;6.43;;
8819;SDS011;4446;50.876;4.736;2023-06-19T09:50:01;7.20;;;5.80;;
8819;SDS011;4446;50.876;4.736;2023-06-19T09:52:29;7.20;;;6.03;;
8819;SDS011;4446;50.876;4.736;2023-06-19T09:54:56;6.60;;;5.57;;
8819;SDS011;4446;50.876;4.736;2023-06-19T09:57:23;7.03;;;6.20;;
8819;SDS011;4446;50.876;4.736;2023-06-19T09:59:53;7.57;;;6.05;;
8819;SDS011;4446;50.876;4.736;2023-06-19T10:02:21;7.35;;;5.93;;
8819;SDS011;4446;50.876;4.736;2023-06-19T10:04:50;6.70;;;5.47;;
8819;SDS011;4446;50.876;4.736;2023-06-19T10:07:20;6.20;;;5.60;;
8819;SDS011;4446;50.876;4.736;2023-06-19T10:09:55;8.35;;;5.63;;
8819;SDS011;4446;50.876;4.736;2023-06-19T10:12:33;7.50;;;6.20;;
8819;SDS011;4446;50.876;4.736;2023-06-19T10:15:07;7.35;;;6.00;;
8819;SDS011;4446;50.876;4.736;2023-06-19T10:17:42;8.18;;;6.68;;
8819;SDS011;4446;50.876;4.736;2023-06-19T10:20:19;6.72;;;5.25;;
8819;SDS011;4446;50.876;4.736;2023-06-19T10:22:58;6.93;;;5.30;;
8819;SDS011;4446;50.876;4.736;2023-06-19T10:25:30;6.85;;;5.88;;
8819;SDS011;4446;50.876;4.736;2023-06-19T10:27:58;6.22;;;5.28;;
8819;SDS011;4446;50.876;4.736;2023-06-19T10:30:25;5.78;;;5.18;;
8819;SDS011;4446;50.876;4.736;2023-06-19T10:32:54;8.13;;;6.57;;
8819;SDS011;4446;50.876;4.736;2023-06-19T10:35:21;7.85;;;5.57;;
8819;SDS011;4446;50.876;4.736;2023-06-19T10:37:49;6.43;;;5.28;;
8819;SDS011;4446;50.876;4.736;2023-06-19T10:40:18;6.20;;;5.60;;
8819;SDS011;4446;50.876;4.736;2023-06-19T10:42:45;5.90;;;5.30;;
8819;SDS011;4446;50.876;4.736;2023-06-19T10:45:13;6.78;;;5.50;;
8819;SDS011;4446;50.876;4.736;2023-06-19T10:47:42;6.50;;;4.95;;
8819;SDS011;4446;50.876;4.736;2023-06-19T10:50:10;6.50;;;4.75;;
8819;SDS011;4446;50.876;4.736;2023-06-19T10:52:41;7.35;;;4.78;;
8819;SDS011;4446;50.876;4.736;2023-06-19T10:55:09;6.63;;;4.88;;
8819;SDS011;4446;50.876;4.736;2023-06-19T10:57:39;5.55;;;4.68;;
8819;SDS011;4446;50.876;4.736;2023-06-19T11:00:07;6.95;;;4.90;;
8819;SDS011;4446;50.876;4.736;2023-06-19T11:02:38;5.78;;;4.88;;
8819;SDS011;4446;50.876;4.736;2023-06-19T11:05:08;6.05;;;4.55;;
8819;SDS011;4446;50.876;4.736;2023-06-19T11:07:36;5.07;;;4.50;;
8819;SDS011;4446;50.876;4.736;2023-06-19T11:10:04;7.13;;;4.95;;
8819;SDS011;4446;50.876;4.736;2023-06-19T11:12:32;4.82;;;4.20;;
8819;SDS011;4446;50.876;4.736;2023-06-19T11:15:04;6.78;;;4.65;;
8819;SDS011;4446;50.876;4.736;2023-06-19T11:17:32;4.88;;;4.32;;
8819;SDS011;4446;50.876;4.736;2023-06-19T11:19:59;5.88;;;4.60;;
8819;SDS011;4446;50.876;4.736;2023-06-19T11:22:38;5.43;;;4.22;;
8819;SDS011;4446;50.876;4.736;2023-06-19T11:25:07;5.38;;;4.35;;
8819;SDS011;4446;50.876;4.736;2023-06-19T11:27:36;6.70;;;4.65;;
8819;SDS011;4446;50.876;4.736;2023-06-19T11:30:06;5.85;;;5.07;;
8819;SDS011;4446;50.876;4.736;2023-06-19T11:32:35;7.90;;;4.50;;
8819;SDS011;4446;50.876;4.736;2023-06-19T11:35:07;5.80;;;4.22;;
8819;SDS011;4446;50.876;4.736;2023-06-19T11:37:36;4.88;;;4.10;;
8819;SDS011;4446;50.876;4.736;2023-06-19T11:40:06;5.55;;;4.68;;
8819;SDS011;4446;50.876;4.736;2023-06-19T11:42:46;4.80;;;4.20;;
8819;SDS011;4446;50.876;4.736;2023-06-19T11:45:15;5.53;;;4.60;;
8819;SDS011;4446;50.876;4.736;2023-06-19T11:47:45;5.75;;;4.22;;
8819;SDS011;4446;50.876;4.736;2023-06-19T11:50:13;4.63;;;3.92;;
8819;SDS011;4446;50.876;4.736;2023-06-19T11:52:41;5.88;;;4.10;;
8819;SDS011;4446;50.876;4.736;2023-06-19T11:55:10;6.22;;;4.22;;
8819;SDS011;4446;50.876;4.736;2023-06-19T11:57:37;5.28;;;4.38;;
8819;SDS011;4446;50.876;4.736;2023-06-19T12:00:12;6.10;;;4.28;;
8819;SDS011;4446;50.876;4.736;2023-06-19T12:02:43;5.35;;;4.45;;
8819;SDS011;4446;50.876;4.736;2023-06-19T12:05:11;4.88;;;3.75;;
8819;SDS011;4446;50.876;4.736;2023-06-19T12:07:39;6.38;;;4.57;;
8819;SDS011;4446;50.876;4.736;2023-06-19T12:10:06;6.82;;;4.57;;
8819;SDS011;4446;50.876;4.736;2023-06-19T12:12:37;4.57;;;4.10;;
8819;SDS011;4446;50.876;4.736;2023-06-19T12:15:04;7.50;;;4.45;;
8819;SDS011;4446;50.876;4.736;2023-06-19T12:17:33;5.07;;;4.40;;
8819;SDS011;4446;50.876;4.736;2023-06-19T12:20:01;4.90;;;4.30;;
8819;SDS011;4446;50.876;4.736;2023-06-19T12:22:30;4.90;;;4.40;;
8819;SDS011;4446;50.876;4.736;2023-06-19T12:24:57;5.85;;;4.30;;
8819;SDS011;4446;50.876;4.736;2023-06-19T12:27:24;5.70;;;4.35;;
8819;SDS011;4446;50.876;4.736;2023-06-19T12:29:51;4.70;;;4.20;;
8819;SDS011;4446;50.876;4.736;2023-06-19T12:32:19;6.20;;;4.13;;
8819;SDS011;4446;50.876;4.736;2023-06-19T12:34:48;5.68;;;4.15;;
8819;SDS011;4446;50.876;4.736;2023-06-19T12:37:19;5.13;;;4.20;;
8819;SDS011;4446;50.876;4.736;2023-06-19T12:39:46;5.15;;;4.32;;
8819;SDS011;4446;50.876;4.736;2023-06-19T12:42:13;4.72;;;4.13;;
8819;SDS011;4446;50.876;4.736;2023-06-19T12:44:40;4.70;;;4.05;;
8819;SDS011;4446;50.876;4.736;2023-06-19T12:47:07;4.72;;;4.05;;
8819;SDS011;4446;50.876;4.736;2023-06-19T12:49:36;4.57;;;4.18;;
8819;SDS011;4446;50.876;4.736;2023-06-19T12:52:05;4.32;;;3.92;;
8819;SDS011;4446;50.876;4.736;2023-06-19T12:54:32;4.93;;;3.92;;
8819;SDS011;4446;50.876;4.736;2023-06-19T12:57:00;5.10;;;4.35;;
8819;SDS011;4446;50.876;4.736;2023-06-19T12:59:27;4.60;;;3.83;;
8819;SDS011;4446;50.876;4.736;2023-06-19T13:01:54;4.88;;;3.47;;
8819;SDS011;4446;50.876;4.736;2023-06-19T13:04:21;5.35;;;4.32;;
8819;SDS011;4446;50.876;4.736;2023-06-19T13:06:48;5.50;;;3.72;;
8819;SDS011;4446;50.876;4.736;2023-06-19T13:09:16;5.40;;;4.15;;
8819;SDS011;4446;50.876;4.736;2023-06-19T13:11:43;6.00;;;4.50;;
8819;SDS011;4446;50.876;4.736;2023-06-19T13:14:10;5.18;;;4.28;;
8819;SDS011;4446;50.876;4.736;2023-06-19T13:16:37;4.75;;;4.28;;
8819;SDS011;4446;50.876;4.736;2023-06-19T13:19:04;5.25;;;4.40;;
8819;SDS011;4446;50.876;4.736;2023-06-19T13:21:31;4.20;;;3.80;;
8819;SDS011;4446;50.876;4.736;2023-06-19T13:23:58;5.75;;;4.25;;
8819;SDS011;4446;50.876;4.736;2023-06-19T13:26:26;4.88;;;4.35;;
8819;SDS011;4446;50.876;4.736;2023-06-19T13:28:53;4.53;;;4.13;;
8819;SDS011;4446;50.876;4.736;2023-06-19T13:31:23;4.95;;;4.45;;
8819;SDS011;4446;50.876;4.736;2023-06-19T13:33:50;5.20;;;4.38;;
8819;SDS011;4446;50.876;4.736;2023-06-19T13:36:17;5.30;;;4.80;;
8819;SDS011;4446;50.876;4.736;2023-06-19T13:38:45;6.50;;;4.30;;
8819;SDS011;4446;50.876;4.736;2023-06-19T13:41:13;4.25;;;3.95;;
8819;SDS011;4446;50.876;4.736;2023-06-19T13:43:41;4.53;;;4.10;;
8819;SDS011;4446;50.876;4.736;2023-06-19T13:46:13;4.88;;;4.47;;
8819;SDS011;4446;50.876;4.736;2023-06-19T13:48:40;5.38;;;4.20;;
8819;SDS011;4446;50.876;4.736;2023-06-19T13:51:07;5.15;;;4.55;;
8819;SDS011;4446;50.876;4.736;2023-06-19T13:53:34;5.65;;;4.88;;
8819;SDS011;4446;50.876;4.736;2023-06-19T13:56:01;4.82;;;4.43;;
8819;SDS011;4446;50.876;4.736;2023-06-19T13:58:28;4.93;;;4.43;;
8819;SDS011;4446;50.876;4.736;2023-06-19T14:00:56;8.20;;;4.78;;
8819;SDS011;4446;50.876;4.736;2023-06-19T14:03:23;3.90;;;3.50;;
8819;SDS011;4446;50.876;4.736;2023-06-19T14:05:50;4.47;;;4.07;;
8819;SDS011;4446;50.876;4.736;2023-06-19T14:08:17;5.22;;;4.25;;
8819;SDS011;4446;50.876;4.736;2023-06-19T14:10:44;4.85;;;4.03;;
8819;SDS011;4446;50.876;4.736;2023-06-19T14:13:11;4.28;;;3.88;;
8819;SDS011;4446;50.876;4.736;2023-06-19T14:15:38;3.97;;;3.60;;
8819;SDS011;4446;50.876;4.736;2023-06-19T14:18:07;4.60;;;3.78;;
8819;SDS011;4446;50.876;4.736;2023-06-19T14:20:34;4.68;;;4.28;;
8819;SDS011;4446;50.876;4.736;2023-06-19T14:23:02;4.38;;;4.00;;
8819;SDS011;4446;50.876;4.736;2023-06-19T14:25:32;3.95;;;3.60;;
8819;SDS011;4446;50.876;4.736;2023-06-19T14:27:58;4.00;;;3.60;;
8819;SDS011;4446;50.876;4.736;2023-06-19T14:30:25;4.68;;;4.28;;
8819;SDS011;4446;50.876;4.736;2023-06-19T14:32:52;5.18;;;3.80;;
8819;SDS011;4446;50.876;4.736;2023-06-19T14:35:21;4.30;;;3.90;;
8819;SDS011;4446;50.876;4.736;2023-06-19T14:37:48;4.18;;;3.78;;
8819;SDS011;4446;50.876;4.736;2023-06-19T14:40:15;6.25;;;4.43;;
8819;SDS011;4446;50.876;4.736;2023-06-19T14:42:42;4.53;;;3.83;;
8819;SDS011;4446;50.876;4.736;2023-06-19T14:45:09;5.35;;;4.05;;
8819;SDS011;4446;50.876;4.736;2023-06-19T14:47:36;4.25;;;3.83;;
8819;SDS011;4446;50.876;4.736;2023-06-19T14:50:04;4.47;;;4.07;;
8819;SDS011;4446;50.876;4.736;2023-06-19T14:52:33;4.70;;;4.30;;
8819;SDS011;4446;50.876;4.736;2023-06-19T14:55:00;4.40;;;4.00;;
8819;SDS011;4446;50.876;4.736;2023-06-19T14:57:27;5.43;;;4.38;;
8819;SDS011;4446;50.876;4.736;2023-06-19T14:59:54;4.35;;;3.95;;
8819;SDS011;4446;50.876;4.736;2023-06-19T15:02:21;5.25;;;3.97;;
8819;SDS011;4446;50.876;4.736;2023-06-19T15:04:48;6.30;;;3.67;;
8819;SDS011;4446;50.876;4.736;2023-06-19T15:07:15;3.63;;;3.33;;
8819;SDS011;4446;50.876;4.736;2023-06-19T15:09:43;4.00;;;3.60;;
8819;SDS011;4446;50.876;4.736;2023-06-19T15:12:10;4.00;;;3.67;;
8819;SDS011;4446;50.876;4.736;2023-06-19T15:14:37;3.97;;;3.58;;
8819;SDS011;4446;50.876;4.736;2023-06-19T15:17:06;3.97;;;3.67;;
8819;SDS011;4446;50.876;4.736;2023-06-19T15:19:33;5.95;;;3.50;;
8819;SDS011;4446;50.876;4.736;2023-06-19T15:22:00;3.60;;;3.30;;
8819;SDS011;4446;50.876;4.736;2023-06-19T15:24:26;3.80;;;3.50;;
8819;SDS011;4446;50.876;4.736;2023-06-19T15:26:55;4.07;;;3.78;;
8819;SDS011;4446;50.876;4.736;2023-06-19T15:29:24;3.72;;;3.42;;
8819;SDS011;4446;50.876;4.736;2023-06-19T15:31:51;4.07;;;3.70;;
8819;SDS011;4446;50.876;4.736;2023-06-19T15:34:18;5.75;;;4.38;;
8819;SDS011;4446;50.876;4.736;2023-06-19T15:36:45;4.70;;;4.13;;